createdAt,value
2023-02-16T00:01:03.335Z,1.00
2023-02-16T00:03:31.616Z,1.10
2023-02-16T00:05:59.736Z,0.90
2023-02-16T00:08:27.831Z,0.80
2023-02-16T00:11:13.087Z,0.80
2023-02-16T00:13:45.325Z,0.80
2023-02-16T00:16:16.145Z,0.90
2023-02-16T00:18:44.389Z,1.00
2023-02-16T00:21:12.487Z,1.00
2023-02-16T00:23:40.565Z,1.10
2023-02-16T00:26:16.519Z,1.10
2023-02-16T00:28:46.619Z,1.10
2023-02-16T00:31:19.057Z,1.10
2023-02-16T00:33:47.802Z,0.90
2023-02-16T00:36:17.444Z,1.00
2023-02-16T00:38:45.779Z,1.10
2023-02-16T00:41:32.538Z,1.20
2023-02-16T00:44:01.986Z,1.10
2023-02-16T00:46:30.074Z,1.10
2023-02-16T00:48:58.056Z,1.10
2023-02-16T00:51:26.664Z,1.10
2023-02-16T00:53:55.156Z,1.10
2023-02-16T00:56:23.507Z,0.90
2023-02-16T00:58:54.341Z,1.00
2023-02-16T01:01:26.908Z,1.10
2023-02-16T01:03:55.102Z,1.10
2023-02-16T01:06:40.485Z,1.00
2023-02-16T01:09:32.753Z,1.10
2023-02-16T01:12:01.726Z,1.10
2023-02-16T01:14:31.687Z,1.10
2023-02-16T01:17:01.234Z,1.20
2023-02-16T01:19:29.403Z,1.20
2023-02-16T01:21:57.555Z,1.20
2023-02-16T01:24:25.503Z,1.10
2023-02-16T01:26:53.479Z,1.10
2023-02-16T01:29:22.997Z,1.20
2023-02-16T01:31:51.320Z,1.30
2023-02-16T01:34:20.709Z,1.30
2023-02-16T01:36:49.814Z,1.10
2023-02-16T01:39:20.427Z,1.20
2023-02-16T01:42:09.519Z,1.10
2023-02-16T01:44:43.813Z,1.00
2023-02-16T01:47:30.719Z,0.90
2023-02-16T01:50:02.852Z,0.90
2023-02-16T01:52:35.358Z,1.00
2023-02-16T01:55:09.013Z,0.90
2023-02-16T01:57:44.584Z,0.90
2023-02-16T02:00:22.510Z,1.10
2023-02-16T02:02:53.620Z,1.20
2023-02-16T02:05:35.198Z,1.00
2023-02-16T02:08:11.867Z,1.20
2023-02-16T02:10:47.586Z,1.10
2023-02-16T02:13:20.829Z,1.00
2023-02-16T02:15:49.442Z,1.00
2023-02-16T02:18:17.482Z,1.20
2023-02-16T02:21:27.087Z,1.10
2023-02-16T02:24:16.578Z,1.20
2023-02-16T02:27:04.275Z,1.10
2023-02-16T02:29:48.555Z,0.90
2023-02-16T02:32:26.543Z,0.90
2023-02-16T02:35:04.636Z,1.00
2023-02-16T02:37:41.407Z,0.80
2023-02-16T02:40:16.533Z,0.70
2023-02-16T02:42:52.705Z,0.80
2023-02-16T02:45:26.098Z,1.00
2023-02-16T02:47:54.201Z,0.90
2023-02-16T02:50:39.738Z,0.70
2023-02-16T02:53:12.565Z,0.70
2023-02-16T02:56:03.188Z,0.70
2023-02-16T02:58:53.474Z,0.80
2023-02-16T03:01:24.470Z,0.90
2023-02-16T03:03:55.046Z,1.00
2023-02-16T03:06:26.480Z,0.90
2023-02-16T03:08:58.859Z,0.80
2023-02-16T03:11:48.196Z,0.80
2023-02-16T03:14:19.656Z,0.80
2023-02-16T03:17:06.174Z,0.80
2023-02-16T03:19:51.475Z,0.70
2023-02-16T03:22:36.917Z,0.90
2023-02-16T03:25:22.593Z,0.60
2023-02-16T03:28:09.095Z,0.70
2023-02-16T03:30:37.426Z,0.60
2023-02-16T03:33:06.867Z,0.80
2023-02-16T03:35:35.616Z,0.80
2023-02-16T03:38:03.908Z,0.80
2023-02-16T03:40:36.641Z,0.70
2023-02-16T03:43:07.078Z,0.80
2023-02-16T03:45:37.913Z,0.90
2023-02-16T03:48:07.786Z,0.90
2023-02-16T03:50:35.882Z,0.90
2023-02-16T03:53:07.844Z,0.90
2023-02-16T03:55:37.709Z,0.80
2023-02-16T03:58:06.905Z,0.90
2023-02-16T04:00:35.769Z,0.70
2023-02-16T04:03:04.305Z,0.80
2023-02-16T04:05:34.090Z,0.80
2023-02-16T04:08:02.529Z,0.90
2023-02-16T04:10:30.547Z,0.90
2023-02-16T04:12:57.974Z,0.90
2023-02-16T04:15:27.734Z,1.00
2023-02-16T04:17:56.061Z,0.70
2023-02-16T04:20:25.664Z,0.80
2023-02-16T04:22:55.644Z,0.90
2023-02-16T04:25:24.329Z,0.70
2023-02-16T04:27:52.521Z,0.90
2023-02-16T04:30:22.462Z,0.90
2023-02-16T04:32:50.475Z,0.90
2023-02-16T04:35:20.204Z,0.80
2023-02-16T04:37:48.429Z,0.90
2023-02-16T04:40:18.633Z,0.90
2023-02-16T04:42:47.080Z,0.90
2023-02-16T04:45:15.316Z,0.70
2023-02-16T04:47:43.253Z,0.90
2023-02-16T04:50:11.576Z,0.80
2023-02-16T04:52:40.353Z,0.80
2023-02-16T04:55:11.094Z,0.90
2023-02-16T04:57:41.013Z,1.00
2023-02-16T05:00:11.738Z,0.80
2023-02-16T05:02:39.985Z,0.90
2023-02-16T05:05:09.202Z,1.00
2023-02-16T05:07:37.331Z,0.90
2023-02-16T05:10:07.165Z,0.90
2023-02-16T05:12:52.776Z,0.90
2023-02-16T05:15:22.172Z,1.00
2023-02-16T05:17:50.254Z,1.00
2023-02-16T05:20:18.320Z,0.90
2023-02-16T05:22:46.570Z,0.90
2023-02-16T05:25:14.609Z,0.70
2023-02-16T05:27:42.791Z,0.90
2023-02-16T05:30:12.153Z,0.90
2023-02-16T05:32:41.503Z,0.60
2023-02-16T05:35:09.608Z,0.60
2023-02-16T05:37:37.586Z,0.70
2023-02-16T05:40:06.265Z,0.80
2023-02-16T05:42:34.287Z,0.80
2023-02-16T05:45:02.400Z,0.90
2023-02-16T05:47:30.456Z,0.90
2023-02-16T05:49:59.734Z,0.90
2023-02-16T05:52:27.813Z,0.90
2023-02-16T05:54:55.841Z,1.00
2023-02-16T05:57:23.801Z,1.00
2023-02-16T05:59:51.756Z,1.00
2023-02-16T06:02:19.820Z,0.80
2023-02-16T06:04:47.821Z,0.90
2023-02-16T06:07:17.160Z,1.00
2023-02-16T06:09:45.200Z,0.90
2023-02-16T06:12:13.194Z,0.90
2023-02-16T06:14:41.195Z,0.90
2023-02-16T06:17:09.181Z,0.80
2023-02-16T06:19:37.140Z,0.80
2023-02-16T06:22:05.154Z,0.80
2023-02-16T06:24:35.274Z,0.80
2023-02-16T06:29:32.139Z,0.80
2023-02-16T06:32:00.236Z,0.80
2023-02-16T06:34:28.285Z,0.80
2023-02-16T06:36:56.260Z,0.60
2023-02-16T06:39:24.234Z,0.70
2023-02-16T06:41:53.565Z,0.70
2023-02-16T06:44:21.800Z,0.80
2023-02-16T06:46:50.335Z,0.70
2023-02-16T06:49:19.843Z,0.80
2023-02-16T06:51:49.336Z,0.70
2023-02-16T06:54:18.277Z,0.80
2023-02-16T06:56:46.362Z,0.60
2023-02-16T06:59:15.793Z,0.50
2023-02-16T07:01:55.473Z,0.50
2023-02-16T07:04:23.554Z,0.60
2023-02-16T07:06:51.535Z,0.70
2023-02-16T07:09:19.689Z,0.70
2023-02-16T07:11:48.320Z,0.70
2023-02-16T07:14:17.700Z,0.70
2023-02-16T07:16:45.825Z,0.60
2023-02-16T07:19:14.434Z,0.60
2023-02-16T07:21:43.701Z,0.80
2023-02-16T07:24:11.889Z,0.90
2023-02-16T07:26:39.912Z,0.80
2023-02-16T07:29:08.009Z,0.80
2023-02-16T07:31:37.357Z,0.80
2023-02-16T07:34:05.432Z,0.80
2023-02-16T07:36:34.060Z,0.80
2023-02-16T07:39:02.123Z,0.80
2023-02-16T07:41:30.051Z,0.60
2023-02-16T07:43:57.966Z,0.60
2023-02-16T07:46:26.000Z,0.70
2023-02-16T07:48:55.439Z,0.80
2023-02-16T07:51:24.573Z,0.70
2023-02-16T07:53:52.734Z,0.80
2023-02-16T07:56:22.294Z,0.90
2023-02-16T07:58:52.117Z,1.00
2023-02-16T08:01:20.501Z,0.80
2023-02-16T08:03:48.862Z,0.70
2023-02-16T08:06:19.045Z,0.90
2023-02-16T08:08:47.349Z,0.90
2023-02-16T08:11:17.542Z,0.90
2023-02-16T08:13:46.717Z,1.00
2023-02-16T08:16:20.267Z,0.90
2023-02-16T08:18:48.498Z,0.90
2023-02-16T08:21:19.876Z,0.70
2023-02-16T08:23:53.383Z,0.90
2023-02-16T08:26:22.924Z,0.90
2023-02-16T08:28:51.484Z,0.80
2023-02-16T08:31:23.106Z,0.70
2023-02-16T08:33:52.009Z,0.90
2023-02-16T08:36:24.218Z,1.00
2023-02-16T08:38:52.640Z,1.00
2023-02-16T08:41:22.323Z,1.10
2023-02-16T08:43:51.196Z,1.10
2023-02-16T08:46:19.577Z,1.10
2023-02-16T08:48:47.496Z,0.90
2023-02-16T08:51:17.651Z,1.20
2023-02-16T08:53:47.543Z,1.30
2023-02-16T08:56:16.750Z,1.30
2023-02-16T08:58:44.976Z,1.30
2023-02-16T09:01:14.318Z,1.40
2023-02-16T09:03:44.883Z,1.50
2023-02-16T09:06:14.384Z,1.30
2023-02-16T09:08:43.040Z,0.90
2023-02-16T09:11:14.805Z,1.20
2023-02-16T09:13:44.701Z,1.30
2023-02-16T09:16:18.006Z,1.50
2023-02-16T09:18:47.185Z,1.40
2023-02-16T09:21:17.020Z,1.40
2023-02-16T09:23:48.141Z,1.40
2023-02-16T09:26:18.693Z,1.40
2023-02-16T09:28:47.446Z,1.40
2023-02-16T09:31:20.098Z,1.50
2023-02-16T09:33:48.115Z,1.40
2023-02-16T09:36:16.288Z,1.50
2023-02-16T09:38:44.248Z,1.50
2023-02-16T09:41:27.901Z,1.50
2023-02-16T09:43:59.718Z,1.60
2023-02-16T09:46:30.191Z,1.20
2023-02-16T09:48:58.776Z,1.30
2023-02-16T09:51:34.523Z,1.20
2023-02-16T09:54:14.293Z,1.40
2023-02-16T09:56:50.275Z,1.40
2023-02-16T09:59:42.660Z,1.70
2023-02-16T10:02:31.843Z,1.70
2023-02-16T10:05:17.304Z,1.70
2023-02-16T10:07:57.220Z,1.60
2023-02-16T10:10:32.419Z,1.70
2023-02-16T10:13:09.364Z,2.00
2023-02-16T10:15:42.814Z,1.90
2023-02-16T10:18:22.008Z,1.80
2023-02-16T10:20:53.345Z,1.80
2023-02-16T10:23:33.805Z,1.80
2023-02-16T10:26:07.620Z,2.00
2023-02-16T10:28:46.376Z,1.90
2023-02-16T10:31:20.520Z,2.00
2023-02-16T10:34:05.220Z,1.80
2023-02-16T10:36:47.925Z,1.70
2023-02-16T10:39:22.764Z,1.80
2023-02-16T10:41:56.312Z,1.80
2023-02-16T10:44:31.864Z,1.90
2023-02-16T10:47:04.782Z,1.90
2023-02-16T10:49:33.894Z,2.20
2023-02-16T10:52:04.554Z,2.20
2023-02-16T10:54:33.728Z,2.20
2023-02-16T10:57:04.254Z,2.30
2023-02-16T10:59:39.792Z,2.50
2023-02-16T11:02:19.915Z,2.50
2023-02-16T11:04:52.579Z,2.50
2023-02-16T11:07:22.189Z,2.60
2023-02-16T11:09:53.006Z,2.30
2023-02-16T11:12:28.453Z,2.20
2023-02-16T11:15:01.160Z,2.30
2023-02-16T11:17:30.021Z,2.20
2023-02-16T11:20:02.086Z,2.20
2023-02-16T11:22:36.978Z,2.40
2023-02-16T11:25:26.872Z,2.40
2023-02-16T11:27:57.238Z,2.30
2023-02-16T11:30:33.936Z,2.30
2023-02-16T11:33:19.852Z,2.50
2023-02-16T11:35:50.096Z,2.60
2023-02-16T11:38:33.112Z,2.40
2023-02-16T11:41:04.679Z,2.50
2023-02-16T11:43:37.202Z,2.70
2023-02-16T11:46:14.683Z,2.90
2023-02-16T11:48:43.711Z,3.00
2023-02-16T11:51:15.288Z,3.30
2023-02-16T11:53:46.004Z,3.00
2023-02-16T11:56:24.072Z,3.30
2023-02-16T11:59:13.923Z,3.40
2023-02-16T12:02:03.386Z,3.50
2023-02-16T12:04:50.906Z,3.60
2023-02-16T12:07:31.571Z,3.20
2023-02-16T12:10:04.615Z,3.50
2023-02-16T12:12:37.468Z,3.50
2023-02-16T12:15:15.840Z,3.90
2023-02-16T12:17:57.312Z,4.60
2023-02-16T12:20:47.995Z,4.40
2023-02-16T12:23:34.166Z,4.10
2023-02-16T12:26:26.598Z,3.80
2023-02-16T12:29:06.856Z,3.60
2023-02-16T12:31:51.281Z,3.80
2023-02-16T12:34:29.023Z,4.00
2023-02-16T12:37:05.761Z,3.70
2023-02-16T12:39:46.128Z,4.10
2023-02-16T12:42:36.958Z,4.00
2023-02-16T12:45:09.738Z,4.00
2023-02-16T12:47:42.344Z,4.20
2023-02-16T12:50:20.150Z,4.20
2023-02-16T12:52:52.761Z,4.50
2023-02-16T12:55:23.706Z,4.60
2023-02-16T12:57:59.249Z,4.70
2023-02-16T13:00:38.480Z,4.50
2023-02-16T13:03:17.806Z,4.80
2023-02-16T13:05:52.289Z,5.00
2023-02-16T13:08:28.065Z,4.90
2023-02-16T13:10:59.605Z,4.90
2023-02-16T13:13:32.842Z,4.60
2023-02-16T13:16:20.420Z,4.60
2023-02-16T13:18:57.366Z,4.50
2023-02-16T13:22:12.719Z,4.40
2023-02-16T13:24:49.302Z,4.50
2023-02-16T13:27:30.034Z,4.50
2023-02-16T13:30:45.814Z,4.30
2023-02-16T13:33:26.590Z,4.20
2023-02-16T13:36:34.012Z,4.40
2023-02-16T13:39:42.002Z,4.60
2023-02-16T13:42:35.559Z,4.50
2023-02-16T13:45:05.962Z,4.20
2023-02-16T13:47:38.982Z,4.20
2023-02-16T13:50:10.097Z,4.30
2023-02-16T13:52:41.863Z,4.30
2023-02-16T13:55:25.891Z,4.30
2023-02-16T13:58:04.494Z,4.20
2023-02-16T14:00:36.581Z,4.20
2023-02-16T14:03:12.225Z,4.30
2023-02-16T14:05:42.629Z,4.40
2023-02-16T14:08:28.196Z,4.50
2023-02-16T14:11:13.662Z,4.50
2023-02-16T14:13:51.112Z,4.60
2023-02-16T14:16:31.563Z,4.70
2023-02-16T14:19:02.339Z,4.50
2023-02-16T14:21:37.104Z,4.60
2023-02-16T14:24:07.485Z,4.80
2023-02-16T14:26:59.297Z,4.70
2023-02-16T14:29:31.580Z,4.80
2023-02-16T14:32:05.865Z,4.40
2023-02-16T14:34:39.827Z,4.40
2023-02-16T14:37:39.302Z,4.40
2023-02-16T14:40:19.807Z,4.50
2023-02-16T14:42:54.409Z,4.30
2023-02-16T14:46:11.633Z,4.20
2023-02-16T14:49:14.970Z,4.40
2023-02-16T14:52:01.786Z,4.20
2023-02-16T14:55:07.078Z,4.30
2023-02-16T14:57:41.848Z,4.20
2023-02-16T15:00:22.285Z,4.30
2023-02-16T15:02:59.087Z,4.30
2023-02-16T15:05:29.929Z,4.20
2023-02-16T15:08:09.095Z,4.20
2023-02-16T15:10:39.108Z,4.20
2023-02-16T15:13:07.563Z,4.20
2023-02-16T15:15:46.215Z,4.20
2023-02-16T15:18:18.349Z,4.10
2023-02-16T15:20:51.110Z,4.10
2023-02-16T15:23:21.508Z,4.10
2023-02-16T15:25:59.187Z,4.00
2023-02-16T15:28:29.445Z,4.10
2023-02-16T15:31:01.373Z,4.20
2023-02-16T15:33:46.528Z,4.20
2023-02-16T15:36:18.011Z,4.20
2023-02-16T15:38:57.803Z,4.20
2023-02-16T15:41:28.712Z,4.20
2023-02-16T15:43:57.111Z,4.20
2023-02-16T15:46:30.166Z,4.20
2023-02-16T15:48:58.442Z,4.20
2023-02-16T15:51:31.518Z,4.20
2023-02-16T15:54:02.165Z,4.20
2023-02-16T15:56:41.306Z,4.20
2023-02-16T15:59:35.745Z,4.20
2023-02-16T16:02:13.891Z,4.30
2023-02-16T16:04:43.627Z,4.30
2023-02-16T16:07:15.636Z,4.30
2023-02-16T16:09:45.312Z,4.30
2023-02-16T16:12:16.855Z,4.30
2023-02-16T16:14:51.253Z,4.40
2023-02-16T16:17:28.068Z,4.40
2023-02-16T16:19:56.761Z,4.40
2023-02-16T16:22:35.710Z,4.40
2023-02-16T16:25:04.583Z,4.40
2023-02-16T16:27:36.624Z,4.40
2023-02-16T16:30:15.403Z,4.40
2023-02-16T16:32:44.936Z,4.40
2023-02-16T16:35:22.907Z,4.40
2023-02-16T16:37:53.516Z,4.40
2023-02-16T16:40:24.898Z,4.40
2023-02-16T16:43:18.873Z,4.40
2023-02-16T16:45:47.981Z,4.40
2023-02-16T16:48:19.925Z,4.40
2023-02-16T16:50:49.118Z,4.40
2023-02-16T16:53:42.521Z,4.30
2023-02-16T16:56:12.839Z,4.20
2023-02-16T16:58:41.079Z,4.20
2023-02-16T17:01:10.576Z,4.20
2023-02-16T17:03:39.944Z,4.10
2023-02-16T17:06:10.740Z,4.10
2023-02-16T17:08:38.923Z,4.00
2023-02-16T17:11:09.360Z,3.90
2023-02-16T17:13:37.707Z,3.90
2023-02-16T17:16:08.937Z,3.80
2023-02-16T17:18:36.865Z,3.70
2023-02-16T17:21:06.720Z,3.70
2023-02-16T17:23:34.749Z,3.70
2023-02-16T17:26:03.323Z,3.70
2023-02-16T17:28:36.623Z,3.70
2023-02-16T17:31:04.920Z,3.70
2023-02-16T17:33:32.897Z,3.70
2023-02-16T17:36:03.706Z,3.70
2023-02-16T17:38:33.627Z,3.80
2023-02-16T17:41:01.591Z,3.80
2023-02-16T17:43:29.746Z,3.80
2023-02-16T17:45:59.580Z,3.80
2023-02-16T17:48:30.325Z,3.80
2023-02-16T17:50:59.070Z,3.90
2023-02-16T17:53:28.100Z,3.90
2023-02-16T17:55:58.927Z,3.90
2023-02-16T17:58:27.178Z,3.90
2023-02-16T18:00:56.451Z,3.90
2023-02-16T18:03:25.139Z,3.80
2023-02-16T18:05:53.875Z,3.80
2023-02-16T18:08:22.300Z,3.90
2023-02-16T18:11:01.778Z,3.90
2023-02-16T18:13:31.803Z,3.90
2023-02-16T18:16:01.776Z,4.00
2023-02-16T18:18:30.390Z,3.90
2023-02-16T18:20:58.308Z,3.90
2023-02-16T18:23:26.330Z,3.90
2023-02-16T18:25:54.612Z,3.90
2023-02-16T18:28:27.986Z,3.80
2023-02-16T18:30:57.879Z,3.70
2023-02-16T18:33:26.011Z,3.60
2023-02-16T18:35:56.192Z,3.50
2023-02-16T18:38:24.843Z,3.50
2023-02-16T18:40:54.456Z,3.50
2023-02-16T18:43:23.229Z,3.50
2023-02-16T18:45:51.301Z,3.50
2023-02-16T18:48:21.746Z,3.60
2023-02-16T18:50:50.081Z,3.60
2023-02-16T18:53:18.091Z,3.70
2023-02-16T18:55:46.027Z,3.70
2023-02-16T18:58:15.731Z,3.60
2023-02-16T19:00:44.002Z,3.70
2023-02-16T19:03:12.030Z,3.70
2023-02-16T19:05:41.744Z,3.80
2023-02-16T19:08:09.810Z,3.80
2023-02-16T19:10:37.995Z,3.80
2023-02-16T19:13:07.106Z,3.80
2023-02-16T19:15:35.258Z,3.80
2023-02-16T19:18:03.417Z,3.70
2023-02-16T19:20:31.382Z,3.70
2023-02-16T19:23:00.733Z,3.70
2023-02-16T19:25:29.298Z,3.60
2023-02-16T19:27:57.423Z,3.70
2023-02-16T19:30:25.495Z,3.70
2023-02-16T19:32:53.587Z,3.70
2023-02-16T19:35:21.634Z,3.60
2023-02-16T19:37:49.549Z,3.60
2023-02-16T19:40:19.027Z,3.70
2023-02-16T19:42:46.930Z,3.70
2023-02-16T19:45:14.933Z,3.70
2023-02-16T19:47:43.090Z,3.70
2023-02-16T19:50:11.473Z,3.70
2023-02-16T19:52:39.519Z,3.70
2023-02-16T19:55:09.069Z,3.60
2023-02-16T19:57:39.523Z,3.60
2023-02-16T20:00:11.545Z,3.60
2023-02-16T20:02:39.561Z,3.60
2023-02-16T20:05:09.721Z,3.60
2023-02-16T20:07:42.756Z,3.70
2023-02-16T20:10:11.848Z,3.70
2023-02-16T20:12:41.948Z,3.70
2023-02-16T20:15:34.115Z,3.80
2023-02-16T20:18:02.984Z,3.80
2023-02-16T20:20:31.245Z,3.70
2023-02-16T20:22:59.356Z,3.60
2023-02-16T20:25:27.367Z,3.60
2023-02-16T20:27:58.701Z,3.70
2023-02-16T20:30:27.511Z,3.70
2023-02-16T20:33:11.819Z,3.70
2023-02-16T20:35:41.279Z,3.70
2023-02-16T20:38:09.488Z,3.60
2023-02-16T20:40:38.102Z,3.60
2023-02-16T20:43:07.991Z,3.60
2023-02-16T20:45:41.375Z,3.60
2023-02-16T20:48:10.387Z,3.70
2023-02-16T20:50:39.044Z,3.70
2023-02-16T20:53:08.280Z,3.80
2023-02-16T20:55:38.101Z,3.70
2023-02-16T20:58:07.705Z,3.70
2023-02-16T21:00:36.520Z,3.70
2023-02-16T21:03:05.273Z,3.70
2023-02-16T21:05:33.661Z,3.70
2023-02-16T21:08:01.892Z,3.80
2023-02-16T21:10:33.255Z,3.80
2023-02-16T21:13:01.483Z,3.80
2023-02-16T21:15:31.965Z,3.80
2023-02-16T21:18:00.704Z,3.80
2023-02-16T21:20:29.000Z,3.80
2023-02-16T21:22:57.677Z,3.80
2023-02-16T21:25:25.800Z,3.80
2023-02-16T21:27:53.941Z,3.80
2023-02-16T21:30:22.425Z,3.80
2023-02-16T21:32:52.627Z,3.80
2023-02-16T21:35:21.524Z,3.80
2023-02-16T21:37:49.993Z,3.80
2023-02-16T21:40:35.653Z,3.80
2023-02-16T21:43:04.364Z,3.80
2023-02-16T21:45:32.471Z,3.80
2023-02-16T21:48:19.548Z,3.90
2023-02-16T21:50:47.882Z,3.90
2023-02-16T21:53:18.060Z,3.90
2023-02-16T21:56:03.795Z,3.90
2023-02-16T21:58:34.792Z,4.00
2023-02-16T22:01:03.033Z,4.00
2023-02-16T22:03:32.882Z,4.00
2023-02-16T22:06:03.879Z,4.00
2023-02-16T22:08:34.252Z,4.00
2023-02-16T22:11:07.108Z,4.20
2023-02-16T22:13:35.168Z,4.10
2023-02-16T22:16:13.729Z,4.20
2023-02-16T22:18:48.635Z,4.30
2023-02-16T22:21:20.263Z,4.40
2023-02-16T22:23:51.450Z,4.30
2023-02-16T22:26:25.541Z,4.30
2023-02-16T22:28:56.310Z,4.40
2023-02-16T22:31:30.655Z,4.50
2023-02-16T22:34:02.094Z,4.60
2023-02-16T22:36:31.421Z,4.60
2023-02-16T22:38:59.898Z,4.70
2023-02-16T22:41:28.409Z,4.70
2023-02-16T22:43:59.284Z,4.80
2023-02-16T22:46:29.630Z,4.90
2023-02-16T22:48:58.912Z,4.90
2023-02-16T22:51:31.640Z,4.90
2023-02-16T22:54:01.388Z,4.90
2023-02-16T22:56:33.746Z,4.80
2023-02-16T22:59:02.442Z,4.80
2023-02-16T23:01:33.780Z,4.80
2023-02-16T23:04:02.605Z,4.80
2023-02-16T23:06:41.580Z,4.70
2023-02-16T23:09:14.228Z,4.70
2023-02-16T23:11:42.268Z,4.60
2023-02-16T23:14:16.510Z,4.60
2023-02-16T23:16:44.959Z,4.60
2023-02-16T23:19:15.004Z,4.60
2023-02-16T23:21:44.723Z,4.60
2023-02-16T23:24:15.067Z,4.60
2023-02-16T23:26:43.547Z,4.60
2023-02-16T23:29:12.216Z,4.60
2023-02-16T23:31:42.498Z,4.60
2023-02-16T23:34:11.843Z,4.60
2023-02-16T23:36:40.164Z,4.60
2023-02-16T23:39:11.969Z,4.50
2023-02-16T23:41:40.632Z,4.50
2023-02-16T23:44:09.834Z,4.60
2023-02-16T23:46:37.896Z,4.50
2023-02-16T23:49:05.899Z,4.50
2023-02-16T23:51:33.961Z,4.50
2023-02-16T23:54:01.954Z,4.50
2023-02-16T23:56:31.289Z,4.60
2023-02-16T23:59:01.129Z,4.60
